Aérodrome :
LOGIN :

S'inscrire | Disclaimer

   EN    FR    IT 

 










Légende :    VFR   VFR Marginal   IFR   IFR Intensif   IFR Très Intensif
Visi : 
Plafond : 
>= 8 km
>= 3000ft
5 à 8 km
1000 à 3000 ft
1500m à 5 km
500 à 1000 ft
800 à 1500m
200 à 500 ft
< 800m
< 200 ft
Symboles :   Orages  Brouillard  Fortes neiges  Fortes précipitations  Vent > 20 kt
SIGMETs :   Divers  Orages  Givrage  Turbulence  Onde Orograph.  Cendres Volcan.






- Altitude de l'aérodrome : 33 ft
- Code IATA : MHZ


EGUN - RAF Mildenhall

DERNIER METAR :
  • 131056Z AUTO 25011KT 9999 BKN055 22/08 A3018 RMK AO2 SLP223 T02210075 $

METARs EXPIRÉS :
  • 130956Z AUTO 23008KT 9999 BKN060 22/07 A3019 RMK AO2 SLP226 T02160070 $
  • 130856Z AUTO 23009KT 9999 SCT070 20/09 A3021 RMK AO2 SLP233 T02040087 57007 $

TAF TAF EGUN
Valide du 13 à 04h jusqu'au 14 à 10h UTC


130400Z 1304/1410 VRB06KT 9999 SCT060 QNH3022INS
BECMG 1308/1309 24012G20KT 9999 BKN040 QNH3008INS
BECMG 1318/1319 25009KT 9000 -SHRA BKN015 QNH3002INS TX22/1314Z TN12/1305Z



MET'MAP, la Météo Aéronautique d'un coup d'oeil ! - Copyright ORBIFLY Décembre 2007 - Disclaimer

ORBIFLY MET'MAP TEAM :

Programmation & Développement : Alexandra Zaïnal
Sur une idée originale de : Baudouin d'Aumeries
Assistance à la programmation : Marc-Olivier Méhu
Soutien technique & logistique : Manuel Goepfert

Contact : metmap@orbifly.com




SOURCES & CREDITS :

   NOAA